Flight Track Log - Related Links

Times and Time Zones

All times are in EDT time to prevent confusion due to time zone crossing. See the EGF4300 flight status page for this flight to view local times or setup timezone preferences in your user account.

Time Position Orientation Groundspeed Altitude Reporting Facility
EDT Latitude Longitude Course Direction KTS MPH feet Rate Location/Type
Tue 09:28:55 PM 42.0000 -87.9833 270° West 194 223 2,800  Level Chicago TRACON
Tue 09:29:55 PM 42.0333 -88.0667 298° West 235 270 4,700 1,965 Climbing Chicago TRACON
Tue 09:30:00 PM 41.9667 -88.2456 270° West  Level FlightAware Approximate
Tue 09:30:48 PM 42.0483 -88.1436 285° West 239 275 6,500  Level Chicago Center
Tue 09:31:00 PM 41.9667 -88.3608 270° West  Level FlightAware Approximate
Tue 09:31:50 PM 42.0486 -88.2419 270° West 269 310 8,800  Level Chicago Center
Tue 09:32:00 PM 41.9667 -88.4760 270° West  Level FlightAware Approximate
Tue 09:32:52 PM 42.0403 -88.3361 263° West 261 300 11,000  Level Chicago Center
Tue 09:33:00 PM 41.9668 -88.5912 270° West  Level FlightAware Approximate
Tue 09:33:54 PM 42.0303 -88.4358 262° West 268 308 12,500  Level Chicago Center
Tue 09:34:00 PM 41.9667 -88.7096 270° West  Level FlightAware Approximate
Tue 09:34:55 PM 42.0219 -88.5450 264° West 290 334 13,000  Level Chicago Center
Tue 09:35:57 PM 42.0186 -88.6578 268° West 302 348 14,600 1,805 Climbing Chicago Center
Tue 09:36:58 PM 42.0397 -88.7900 282° West 306 352 16,700 1,610 Climbing Chicago Center
Tue 09:38:00 PM 42.0581 -88.9028 282° West 311 358 17,900 1,210 Climbing Chicago Center
Tue 09:39:02 PM 42.0772 -89.0233 282° West 321 369 19,200 1,220 Climbing Chicago Center
Tue 09:40:03 PM 42.0964 -89.1506 282° West 340 391 20,400 1,073 Climbing Chicago Center
Tue 09:41:05 PM 42.1172 -89.2825 282° West 356 410 21,400 976 Climbing Chicago Center
Tue 09:42:06 PM 42.1381 -89.4153 282° West 362 417 22,400 976 Climbing Chicago Center
Tue 09:43:08 PM 42.1586 -89.5503 282° West 366 421 23,400 774 Climbing Chicago Center
Tue 09:44:10 PM 42.1833 -89.7131 282° West 376 433 24,000 293 Climbing Chicago Center
Tue 09:45:11 PM 42.2000 -89.8583 279° West 388 447 24,000  Level Chicago Center
Tue 09:46:13 PM 42.2256 -89.9875 285° West 402 463 24,000  Level Chicago Center
Tue 09:47:14 PM 42.2461 -90.1331 281° West 401 461 24,000  Level Chicago Center
Tue 09:48:16 PM 42.2733 -90.3094 282° West 404 465 24,000  Level Chicago Center
Tue 09:49:17 PM 42.2953 -90.4594 281° West 410 472 24,000  Level Chicago Center
Tue 09:50:19 PM 42.3172 -90.6117 281° West 415 478 24,000 -49 Level Chicago Center
Tue 09:51:20 PM 42.3383 -90.7644 281° West 416 479 23,900 -780 Descending Chicago Center
Tue 09:52:22 PM 42.3603 -90.9133 281° West 408 470 22,400 -1,756 Descending Chicago Center
Tue 09:53:23 PM 42.3806 -91.0569 281° West 394 453 20,300 -2,244 Descending Chicago Center
Tue 09:54:25 PM 42.4028 -91.2222 280° West 379 436 17,800 -2,244 Descending Chicago Center
Tue 09:55:26 PM 42.4206 -91.3547 280° West 367 422 15,700 -2,293 Descending Chicago Center
Tue 09:56:28 PM 42.4369 -91.4836 280° West 353 406 13,100 -2,226 Descending Chicago Center
Tue 09:57:30 PM 42.4539 -91.6064 281° West 340 391 11,100 -976 Descending Chicago Center
Tue 09:58:31 PM 42.4700 -91.7250 280° West 327 376 11,100 -49 Level Chicago Center
Tue 09:59:32 PM 42.4861 -91.8481 280° West 327 376 11,000 -341 Descending Chicago Center
Tue 10:00:34 PM 42.5017 -91.9650 280° West 323 372 10,400 -1,073 Descending Chicago Center
Tue 10:01:35 PM 42.5131 -92.0583 279° West 269 310 8,800 -2,146 Descending Chicago Center
Tue 10:02:37 PM 42.5281 -92.1719 280° West 255 293 6,000 -2,439 Descending Chicago Center
Tue 10:03:38 PM 42.5397 -92.2736 279° West 263 303 3,800 -1,415 Descending Chicago Center
Tue 10:04:40 PM 42.5725 -92.3514 300° West 248 285 3,100 -780 Descending Chicago Center
Tue 10:05:41 PM 42.6039 -92.4064 308° West 212 244 2,200 -878 Descending Chicago Center
Tue 10:06:43 PM 42.5739 -92.4267 206° Southwest 181 208 1,300 -871 Descending Chicago Center

Login

Don't have an account? Register now (free) for customized features, flight alerts, and more!